Time;durP1;ratioP1;P1;durP2;ratioP2;P2;SDS_P1;SDS_P2;PMS_P1;PMS_P2;Temp;Humidity;BMP_temperature;BMP_pressure;BME280_temperature;BME280_humidity;BME280_pressure;Samples;Min_cycle;Max_cycle;Signal;HPM_P1;HPM_P2
2021/11/24 00:02:09;;;;;;;11.13;6.03;;;1.20;94.80;;;;;;5036818;28;20112;-78
2021/11/24 00:04:34;;;;;;;12.20;6.50;;;1.20;95.10;;;;;;5042444;28;20503;-77
2021/11/24 00:07:00;;;;;;;10.32;6.15;;;1.20;95.60;;;;;;5043555;28;20041;-77
2021/11/24 00:09:26;;;;;;;13.10;6.60;;;1.20;96.20;;;;;;5053252;28;20025;-78
2021/11/24 00:11:52;;;;;;;11.35;6.68;;;1.20;96.90;;;;;;5054256;28;20045;-78
2021/11/24 00:14:17;;;;;;;10.38;6.97;;;1.30;96.50;;;;;;5053856;28;20026;-78
2021/11/24 00:16:44;;;;;;;11.82;6.68;;;1.40;96.00;;;;;;5052689;28;20025;-78
2021/11/24 00:19:10;;;;;;;10.85;7.13;;;1.40;96.40;;;;;;5053892;28;20124;-76
2021/11/24 00:21:36;;;;;;;13.13;7.32;;;1.40;96.40;;;;;;5054285;28;20029;-76
2021/11/24 00:24:02;;;;;;;9.98;6.25;;;1.40;96.70;;;;;;5048299;28;20036;-77
2021/11/24 00:26:27;;;;;;;11.77;7.03;;;1.50;96.40;;;;;;5052837;28;20029;-77
2021/11/24 00:28:53;;;;;;;13.90;7.47;;;1.50;96.00;;;;;;5049672;28;20025;-77
2021/11/24 00:31:19;;;;;;;11.68;6.95;;;1.50;96.60;;;;;;5035587;28;20028;-77
2021/11/24 00:33:45;;;;;;;12.27;7.55;;;1.50;96.00;;;;;;5035711;28;20022;-78
2021/11/24 00:36:11;;;;;;;11.43;7.38;;;1.60;96.30;;;;;;5033154;28;20112;-78
2021/11/24 00:38:37;;;;;;;12.13;7.55;;;1.60;95.70;;;;;;5032720;28;20041;-79
2021/11/24 00:41:04;;;;;;;12.57;6.22;;;1.60;95.10;;;;;;5033241;28;20493;-80
2021/11/24 00:43:29;;;;;;;9.73;6.40;;;1.60;94.90;;;;;;5034151;28;20033;-80
2021/11/24 00:45:56;;;;;;;9.43;5.75;;;1.50;95.30;;;;;;5028718;28;20664;-80
2021/11/24 00:48:22;;;;;;;8.50;5.53;;;1.40;95.40;;;;;;5028582;28;20033;-80
2021/11/24 00:50:48;;;;;;;9.25;5.70;;;1.40;95.90;;;;;;5034361;28;20033;-81
2021/11/24 00:53:15;;;;;;;8.95;5.78;;;1.40;96.30;;;;;;5034131;28;20148;-80
2021/11/24 00:55:41;;;;;;;10.57;6.65;;;1.40;96.80;;;;;;5033594;28;20025;-80
2021/11/24 00:58:06;;;;;;;9.77;5.35;;;1.40;96.40;;;;;;5032681;28;20032;-80
2021/11/24 01:00:32;;;;;;;7.85;5.30;;;1.50;96.10;;;;;;5032456;28;20060;-80
2021/11/24 01:02:58;;;;;;;8.48;5.25;;;1.50;95.60;;;;;;5033593;28;20029;-79
2021/11/24 01:05:24;;;;;;;8.13;4.90;;;1.50;95.20;;;;;;5033990;28;20036;-80
2021/11/24 01:07:49;;;;;;;8.63;4.95;;;1.40;95.70;;;;;;5032115;28;20392;-81
2021/11/24 01:10:15;;;;;;;7.60;5.18;;;1.40;95.50;;;;;;5033648;28;20063;-80
2021/11/24 01:12:43;;;;;;;9.65;5.43;;;1.40;95.80;;;;;;5032143;28;20050;-81
2021/11/24 01:15:10;;;;;;;9.80;5.40;;;1.50;96.00;;;;;;5033658;28;20448;-80
2021/11/24 01:17:36;;;;;;;8.77;5.05;;;1.50;95.70;;;;;;5032117;28;20033;-81
2021/11/24 01:20:03;;;;;;;7.13;4.90;;;1.40;95.20;;;;;;5012194;28;20109;-81
2021/11/24 01:22:29;;;;;;;8.98;5.45;;;1.40;95.00;;;;;;5017384;28;20456;-80
2021/11/24 01:24:55;;;;;;;8.10;5.30;;;1.40;96.00;;;;;;5031814;28;20021;-80
2021/11/24 01:27:21;;;;;;;9.82;6.22;;;1.40;96.20;;;;;;5023188;28;20026;-80
2021/11/24 01:29:46;;;;;;;11.55;6.75;;;1.40;95.40;;;;;;5013564;28;20026;-80
2021/11/24 01:32:12;;;;;;;10.73;6.35;;;1.30;95.30;;;;;;5045419;28;20113;-80
2021/11/24 01:34:38;;;;;;;9.82;6.10;;;1.30;94.80;;;;;;5013689;28;20025;-81
2021/11/24 01:37:04;;;;;;;11.07;6.55;;;1.30;94.50;;;;;;5045119;28;20042;-80
2021/11/24 01:39:31;;;;;;;11.05;6.50;;;1.30;94.60;;;;;;5013428;28;20465;-80
2021/11/24 01:41:57;;;;;;;9.05;5.90;;;1.30;94.20;;;;;;5015557;28;20025;-80
2021/11/24 01:44:28;;;;;;;7.90;5.40;;;1.20;94.40;;;;;;5033052;28;20055;-78
2021/11/24 01:47:00;;;;;;;8.13;5.32;;;1.20;94.20;;;;;;5033252;28;20072;-79
2021/11/24 01:49:27;;;;;;;9.65;6.35;;;1.20;94.00;;;;;;5033079;28;20025;-78
2021/11/24 01:51:53;;;;;;;10.55;6.00;;;1.10;94.20;;;;;;5032969;28;20032;-79
2021/11/24 01:54:19;;;;;;;9.35;6.55;;;1.10;94.30;;;;;;5032085;28;20033;-79
2021/11/24 01:56:46;;;;;;;9.38;5.60;;;1.00;94.10;;;;;;5031985;28;20026;-80
2021/11/24 01:59:13;;;;;;;9.73;6.30;;;1.00;93.80;;;;;;5033359;28;20470;-79
2021/11/24 02:01:41;;;;;;;10.52;6.32;;;1.00;94.30;;;;;;5033113;28;20037;-79
2021/11/24 02:04:08;;;;;;;11.07;6.75;;;1.00;94.10;;;;;;5032756;28;20022;-79
2021/11/24 02:06:34;;;;;;;8.75;5.90;;;1.00;94.40;;;;;;5033186;28;20026;-79
2021/11/24 02:09:00;;;;;;;9.98;6.32;;;0.90;94.70;;;;;;5036538;28;20075;-80
2021/11/24 02:11:27;;;;;;;10.27;6.13;;;1.00;95.20;;;;;;5037190;28;20065;-79
2021/11/24 02:13:53;;;;;;;8.50;5.47;;;1.00;94.60;;;;;;5042890;28;20022;-79
2021/11/24 02:16:18;;;;;;;10.85;6.43;;;0.90;94.00;;;;;;5038971;28;20052;-80
2021/11/24 02:18:44;;;;;;;10.00;5.93;;;0.90;94.10;;;;;;5035679;28;20080;-78
2021/11/24 02:21:10;;;;;;;11.25;6.30;;;0.90;94.20;;;;;;5018894;28;20495;-78
2021/11/24 02:23:36;;;;;;;11.35;7.10;;;0.90;94.30;;;;;;5036217;28;20109;-78
2021/11/24 02:26:02;;;;;;;10.52;6.55;;;0.90;95.10;;;;;;5036497;28;20049;-78
2021/11/24 02:28:28;;;;;;;10.52;6.30;;;0.90;94.80;;;;;;5034951;28;20033;-79
2021/11/24 02:30:54;;;;;;;15.48;7.18;;;0.90;94.10;;;;;;5035205;28;20458;-79
2021/11/24 02:33:20;;;;;;;11.50;7.20;;;1.00;93.50;;;;;;5036118;28;20031;-79
2021/11/24 02:35:46;;;;;;;11.00;6.90;;;1.00;93.40;;;;;;5034808;28;20478;-79
2021/11/24 02:38:16;;;;;;;12.10;7.13;;;0.90;93.60;;;;;;5034675;28;20438;-80
2021/11/24 02:40:42;;;;;;;11.10;6.28;;;1.00;93.40;;;;;;5034817;28;20033;-80
2021/11/24 02:43:09;;;;;;;9.55;5.60;;;1.00;93.30;;;;;;5034657;28;20108;-79
2021/11/24 02:45:36;;;;;;;10.48;6.38;;;0.90;93.20;;;;;;5035584;28;20041;-80
2021/11/24 02:48:04;;;;;;;9.98;6.45;;;0.90;93.10;;;;;;5034654;28;20049;-79
2021/11/24 02:50:31;;;;;;;10.55;6.30;;;0.90;93.50;;;;;;5036284;28;20065;-80
2021/11/24 02:52:57;;;;;;;9.60;6.15;;;0.90;93.70;;;;;;5035869;28;20025;-80
2021/11/24 02:55:23;;;;;;;10.40;6.03;;;0.90;93.80;;;;;;5036140;28;20514;-80
2021/11/24 02:57:51;;;;;;;9.45;5.85;;;0.90;93.90;;;;;;5034392;28;20034;-80
2021/11/24 03:00:29;;;;;;;8.85;5.35;;;0.90;94.10;;;;;;5034356;28;20026;-80
2021/11/24 03:02:55;;;;;;;8.52;5.15;;;0.90;94.40;;;;;;5035448;28;20030;-80
2021/11/24 03:05:26;;;;;;;8.50;4.90;;;0.90;93.90;;;;;;5034646;28;20025;-80
2021/11/24 03:07:52;;;;;;;;;;;0.90;93.90;;;;;;5034843;28;20124;-80
2021/11/24 03:10:19;;;;;;;8.50;5.20;;;0.80;97.20;;;;;;5034225;28;20010;-80
2021/11/24 03:12:45;;;;;;;8.98;5.32;;;0.80;94.20;;;;;;5035399;28;20068;-79
2021/11/24 03:15:11;;;;;;;7.70;5.00;;;0.80;94.50;;;;;;5034178;28;20064;-80
2021/11/24 03:17:38;;;;;;;7.07;4.25;;;0.80;94.20;;;;;;5035007;28;20068;-79
2021/11/24 03:20:06;;;;;;;7.05;4.47;;;0.80;94.10;;;;;;5034192;28;20040;-79
2021/11/24 03:22:31;;;;;;;7.70;4.50;;;0.80;94.10;;;;;;5035213;28;20025;-79
2021/11/24 03:24:58;;;;;;;7.28;4.53;;;0.80;94.00;;;;;;5035072;28;20029;-80
2021/11/24 03:27:50;;;;;;;6.43;4.28;;;0.80;94.10;;;;;;5035140;28;20041;-80
2021/11/24 03:30:22;;;;;;;8.75;5.18;;;0.80;95.00;;;;;;5033205;28;20048;-80
2021/11/24 03:32:49;;;;;;;10.13;5.10;;;0.80;94.40;;;;;;5034278;28;20026;-80
2021/11/24 03:35:16;;;;;;;10.98;6.38;;;0.80;95.00;;;;;;5033634;28;20480;-80
2021/11/24 03:37:43;;;;;;;9.38;5.50;;;0.80;95.40;;;;;;5033483;28;20041;-80
2021/11/24 03:40:11;;;;;;;7.80;4.97;;;0.80;95.30;;;;;;5034404;28;20038;-80
2021/11/24 03:42:40;;;;;;;7.55;4.93;;;0.90;94.90;;;;;;5034715;28;20034;-81
2021/11/24 03:45:07;;;;;;;7.38;4.65;;;0.80;94.60;;;;;;5035124;28;20063;-78
2021/11/24 03:47:32;;;;;;;6.53;4.53;;;0.90;94.40;;;;;;5033697;28;20424;-79
2021/11/24 03:49:58;;;;;;;7.45;4.60;;;0.90;94.20;;;;;;5033446;28;20037;-78
2021/11/24 03:52:24;;;;;;;6.07;4.13;;;0.90;94.20;;;;;;5034830;28;20034;-79
2021/11/24 03:54:49;;;;;;;6.80;4.45;;;0.90;93.90;;;;;;5033505;28;20029;-79
2021/11/24 03:57:15;;;;;;;8.07;4.90;;;0.90;94.00;;;;;;5034408;28;20091;-79
2021/11/24 03:59:41;;;;;;;10.30;5.85;;;0.90;94.00;;;;;;5034262;28;20464;-78
2021/11/24 04:02:07;;;;;;;9.73;5.97;;;0.90;94.10;;;;;;5034759;28;20057;-77
2021/11/24 04:04:33;;;;;;;9.93;5.75;;;0.90;94.00;;;;;;5034530;28;20040;-79
2021/11/24 04:06:58;;;;;;;8.27;4.65;;;0.90;93.90;;;;;;5032960;28;20033;-79
2021/11/24 04:09:24;;;;;;;6.90;4.68;;;0.90;93.80;;;;;;5033287;28;20057;-80
2021/11/24 04:11:50;;;;;;;8.45;5.00;;;0.90;94.00;;;;;;5033080;28;20032;-79
2021/11/24 04:14:16;;;;;;;9.90;5.50;;;0.90;94.00;;;;;;5033023;28;20029;-78
2021/11/24 04:16:41;;;;;;;9.90;6.18;;;0.80;93.80;;;;;;5033047;28;20384;-78
2021/11/24 04:19:07;;;;;;;9.05;5.53;;;0.80;94.50;;;;;;5033936;28;20380;-79
2021/11/24 04:21:33;;;;;;;7.63;4.88;;;0.80;94.20;;;;;;5032769;28;20365;-79
2021/11/24 04:24:00;;;;;;;7.90;5.38;;;0.80;93.70;;;;;;5032764;28;20030;-78
2021/11/24 04:26:26;;;;;;;8.85;5.40;;;0.80;93.70;;;;;;5034676;28;20112;-79
2021/11/24 04:28:52;;;;;;;9.75;5.55;;;0.80;94.00;;;;;;5016397;28;20128;-79
2021/11/24 04:31:18;;;;;;;10.10;6.07;;;0.80;93.70;;;;;;5032306;28;20079;-78
2021/11/24 04:33:44;;;;;;;8.95;5.55;;;0.80;93.80;;;;;;5032618;28;20029;-78
2021/11/24 04:36:10;;;;;;;8.50;5.00;;;0.80;93.70;;;;;;5033459;28;20049;-79
2021/11/24 04:38:36;;;;;;;9.07;5.68;;;0.90;93.60;;;;;;5033447;28;20479;-80
2021/11/24 04:41:02;;;;;;;8.88;5.30;;;0.90;93.30;;;;;;5032444;28;20471;-79
2021/11/24 04:43:35;;;;;;;10.07;5.60;;;0.80;93.30;;;;;;5034113;28;20104;-78
2021/11/24 04:46:00;;;;;;;9.93;6.35;;;0.80;93.30;;;;;;5032201;28;20046;-79
2021/11/24 04:48:27;;;;;;;10.98;6.97;;;0.80;93.30;;;;;;5032615;28;20029;-79
2021/11/24 04:50:54;;;;;;;10.68;6.90;;;0.80;93.30;;;;;;5032620;28;20484;-78
2021/11/24 04:53:20;;;;;;;11.65;7.20;;;0.90;93.40;;;;;;5033360;28;20116;-79
2021/11/24 04:55:46;;;;;;;9.13;5.97;;;0.90;93.30;;;;;;5039631;28;20050;-78
2021/11/24 04:58:12;;;;;;;9.48;6.05;;;0.90;93.20;;;;;;5052549;28;20038;-81
2021/11/24 05:00:38;;;;;;;12.23;7.35;;;0.90;93.10;;;;;;5055355;28;20085;-79
2021/11/24 05:03:04;;;;;;;8.13;5.60;;;0.80;93.40;;;;;;5056294;28;20025;-79
2021/11/24 05:05:30;;;;;;;10.90;7.55;;;0.80;93.30;;;;;;5052523;28;20080;-78
2021/11/24 05:07:57;;;;;;;11.73;7.93;;;0.80;94.40;;;;;;5056326;28;20057;-79
2021/11/24 05:10:23;;;;;;;10.80;7.45;;;0.80;94.40;;;;;;5051788;28;20032;-77
2021/11/24 05:12:50;;;;;;;11.70;7.30;;;0.70;94.20;;;;;;5048580;28;20022;-81
2021/11/24 05:15:21;;;;;;;30.88;14.32;;;0.70;94.20;;;;;;5034244;28;20032;-78
2021/11/24 05:17:54;;;;;;;42.33;17.58;;;0.80;94.10;;;;;;5066217;28;20076;-77
2021/11/24 05:20:23;;;;;;;40.08;16.55;;;0.80;94.20;;;;;;5034124;28;20021;-81
2021/11/24 05:22:49;;;;;;;35.97;14.68;;;0.80;93.90;;;;;;5032449;28;20468;-81
2021/11/24 05:25:15;;;;;;;31.52;13.40;;;0.80;93.80;;;;;;5033848;28;20022;-86
2021/11/24 05:27:41;;;;;;;28.73;13.13;;;0.80;93.70;;;;;;5068097;28;20038;-85
2021/11/24 05:30:09;;;;;;;29.77;12.60;;;0.80;93.60;;;;;;5065373;28;20030;-78
2021/11/24 05:32:37;;;;;;;20.08;10.30;;;0.80;93.80;;;;;;5064667;28;20084;-82
2021/11/24 05:35:04;;;;;;;19.20;9.75;;;0.80;93.90;;;;;;5032932;28;20026;-81
2021/11/24 05:37:29;;;;;;;17.42;8.18;;;0.80;94.30;;;;;;5032592;28;20116;-81
2021/11/24 05:39:55;;;;;;;13.23;7.78;;;0.70;94.80;;;;;;5034018;28;20028;-79
2021/11/24 05:42:21;;;;;;;12.18;7.28;;;0.80;94.60;;;;;;5021751;28;20464;-81
2021/11/24 05:44:49;;;;;;;12.13;6.90;;;0.80;94.70;;;;;;5041103;28;20077;-80
2021/11/24 05:48:15;;;;;;;14.70;7.75;;;0.80;95.10;;;;;;5037179;28;20029;-78
2021/11/24 05:50:10;;;;;;;12.75;7.03;;;0.80;95.20;;;;;;5035075;28;20037;-79
2021/11/24 05:52:35;;;;;;;13.25;7.30;;;0.80;94.80;;;;;;5035708;28;20091;-79
2021/11/24 05:55:02;;;;;;;15.82;8.77;;;0.80;94.20;;;;;;5035267;28;20079;-81
2021/11/24 05:57:28;;;;;;;14.40;8.15;;;0.80;94.90;;;;;;5033715;28;20037;-81
2021/11/24 05:59:53;;;;;;;15.63;8.93;;;0.80;94.70;;;;;;5034316;28;20432;-80
2021/11/24 06:02:19;;;;;;;17.27;10.73;;;0.80;94.90;;;;;;5035227;28;20061;-81
2021/11/24 06:04:45;;;;;;;18.80;10.20;;;0.80;95.80;;;;;;5033841;28;20029;-80
2021/11/24 06:07:10;;;;;;;21.98;11.80;;;0.80;95.00;;;;;;5067193;28;20060;-80
2021/11/24 06:09:36;;;;;;;20.20;10.93;;;0.80;95.10;;;;;;5033514;28;20083;-80
2021/11/24 06:12:02;;;;;;;28.00;15.45;;;0.70;95.00;;;;;;5036007;28;20112;-80
2021/11/24 06:14:28;;;;;;;31.45;16.70;;;0.80;96.00;;;;;;5036466;28;20032;-80
2021/11/24 06:16:54;;;;;;;31.42;17.38;;;0.80;96.80;;;;;;5068607;28;20022;-80
2021/11/24 06:19:19;;;;;;;32.45;18.05;;;0.90;96.00;;;;;;5068699;28;20028;-80
2021/11/24 06:21:45;;;;;;;34.75;17.55;;;0.90;96.50;;;;;;5036014;28;20468;-80
2021/11/24 06:24:11;;;;;;;34.75;18.88;;;0.90;96.30;;;;;;5035980;28;20026;-82
2021/11/24 06:26:37;;;;;;;32.72;18.50;;;0.90;95.90;;;;;;5068082;28;20026;-80
2021/11/24 06:29:06;;;;;;;35.53;19.55;;;1.00;96.00;;;;;;5036341;28;20049;-81
2021/11/24 06:31:31;;;;;;;35.13;19.73;;;1.00;95.50;;;;;;5067990;28;20112;-80
2021/11/24 06:33:57;;;;;;;36.10;19.05;;;0.90;95.10;;;;;;5068397;28;20053;-79
2021/11/24 06:36:24;;;;;;;35.10;18.48;;;0.90;95.00;;;;;;5036324;28;20116;-81
2021/11/24 06:38:51;;;;;;;56.38;29.30;;;0.90;95.40;;;;;;5035861;28;20029;-82
2021/11/24 06:41:17;;;;;;;48.95;23.73;;;1.00;97.30;;;;;;5034418;28;20057;-80
2021/11/24 06:43:42;;;;;;;44.97;23.45;;;1.20;98.30;;;;;;5035976;28;20057;-80
2021/11/24 06:46:08;;;;;;;43.40;22.63;;;1.50;98.50;;;;;;5036282;28;20042;-80
2021/11/24 06:48:35;;;;;;;41.15;19.85;;;1.80;99.70;;;;;;5035464;28;20038;-78
2021/11/24 06:51:00;;;;;;;35.83;18.15;;;2.20;99.90;;;;;;5034459;28;20033;-78
2021/11/24 06:53:26;;;;;;;37.03;17.20;;;2.70;99.70;;;;;;5035165;28;20029;-79
2021/11/24 06:55:52;;;;;;;30.77;15.63;;;3.10;97.90;;;;;;5067318;28;20082;-79
2021/11/24 06:58:18;;;;;;;31.05;16.75;;;3.40;96.30;;;;;;5035507;28;20057;-82
2021/11/24 07:00:43;;;;;;;25.20;14.77;;;3.60;94.10;;;;;;5068131;28;20048;-79
2021/11/24 07:03:09;;;;;;;27.75;15.43;;;3.70;94.40;;;;;;5034755;28;20454;-79
2021/11/24 07:05:37;;;;;;;27.23;15.93;;;4.00;94.10;;;;;;5061174;28;20160;-78
2021/11/24 07:08:03;;;;;;;26.60;14.60;;;4.30;92.60;;;;;;5067534;28;20029;-78
2021/11/24 07:10:29;;;;;;;24.67;14.25;;;4.40;90.60;;;;;;5035447;28;20022;-84
2021/11/24 07:12:56;;;;;;;19.25;11.30;;;4.40;88.00;;;;;;5068849;28;20022;-86
2021/11/24 07:15:23;;;;;;;18.48;10.63;;;4.40;90.00;;;;;;5034738;28;20033;-85
2021/11/24 07:17:50;;;;;;;16.80;9.55;;;4.60;90.20;;;;;;5035817;28;20040;-87
2021/11/24 07:20:16;;;;;;;15.75;10.48;;;4.70;90.40;;;;;;5018424;28;20030;-81
2021/11/24 07:22:42;;;;;;;18.38;12.10;;;5.00;90.40;;;;;;5035501;28;20021;-81
2021/11/24 07:25:08;;;;;;;35.13;18.80;;;5.30;89.30;;;;;;5035384;28;20030;-78
2021/11/24 07:27:34;;;;;;;24.88;15.02;;;5.60;89.20;;;;;;5067514;28;20460;-79
2021/11/24 07:30:00;;;;;;;19.45;12.10;;;6.00;87.60;;;;;;5067017;28;20078;-78
2021/11/24 07:32:25;;;;;;;18.13;11.65;;;6.30;86.90;;;;;;5067108;28;20487;-78
2021/11/24 07:34:51;;;;;;;19.02;11.40;;;6.70;84.10;;;;;;5035068;28;20025;-79
2021/11/24 07:37:17;;;;;;;15.23;10.32;;;7.00;82.20;;;;;;5033081;28;20037;-78
2021/11/24 07:39:44;;;;;;;18.55;12.13;;;7.10;79.70;;;;;;5032878;28;20045;-79
2021/11/24 07:42:10;;;;;;;20.95;12.63;;;7.00;76.80;;;;;;5033634;28;20026;-78
2021/11/24 07:44:36;;;;;;;21.63;13.05;;;6.80;78.10;;;;;;5033262;28;20025;-80
2021/11/24 07:47:02;;;;;;;24.05;14.48;;;6.80;77.90;;;;;;5031458;28;20429;-78
2021/11/24 07:49:28;;;;;;;27.35;15.23;;;6.90;78.50;;;;;;5031325;28;20029;-78
2021/11/24 07:51:53;;;;;;;28.70;16.55;;;7.00;77.70;;;;;;5062887;28;20021;-79
2021/11/24 07:54:19;;;;;;;25.17;14.82;;;7.20;75.60;;;;;;5063345;28;20530;-79
2021/11/24 07:56:45;;;;;;;22.80;13.45;;;7.10;72.80;;;;;;5031092;28;20014;-78
2021/11/24 07:59:10;;;;;;;25.58;14.98;;;6.70;72.50;;;;;;5031064;28;20060;-78
2021/11/24 08:01:36;;;;;;;29.38;15.82;;;6.30;72.60;;;;;;5032045;28;20403;-80
2021/11/24 08:04:02;;;;;;;27.10;15.52;;;5.90;72.80;;;;;;5033852;28;20029;-77
2021/11/24 08:06:28;;;;;;;26.60;14.93;;;5.40;73.20;;;;;;5033531;28;20026;-78
2021/11/24 08:08:53;;;;;;;25.67;15.10;;;5.00;73.90;;;;;;5032934;28;20468;-77
2021/11/24 08:11:19;;;;;;;24.67;14.68;;;4.60;74.50;;;;;;5034189;28;20022;-78
2021/11/24 08:13:45;;;;;;;27.13;15.73;;;4.40;77.10;;;;;;5034245;28;20033;-78
2021/11/24 08:16:11;;;;;;;49.53;30.77;;;4.70;80.40;;;;;;5033924;28;20036;-78
2021/11/24 08:18:36;;;;;;;41.42;26.67;;;5.30;80.50;;;;;;5033882;28;20040;-78
2021/11/24 08:21:02;;;;;;;40.92;25.45;;;6.10;79.20;;;;;;5034253;28;20057;-79
2021/11/24 08:23:28;;;;;;;35.28;21.70;;;6.80;77.50;;;;;;5065991;28;20079;-79
2021/11/24 08:25:56;;;;;;;34.53;22.10;;;7.30;75.10;;;;;;5066042;28;20026;-78
2021/11/24 08:28:21;;;;;;;31.25;19.65;;;7.50;72.80;;;;;;5033746;28;20425;-79
2021/11/24 08:30:47;;;;;;;30.02;18.10;;;7.50;71.20;;;;;;5033626;28;20100;-79
2021/11/24 08:33:13;;;;;;;27.58;17.15;;;7.40;70.70;;;;;;5065934;28;20029;-79
2021/11/24 08:35:38;;;;;;;23.08;14.25;;;7.30;71.20;;;;;;5033913;28;20030;-77
2021/11/24 08:38:05;;;;;;;25.85;15.90;;;7.50;71.20;;;;;;5033728;28;20472;-77
2021/11/24 08:40:30;;;;;;;24.08;15.23;;;7.60;69.60;;;;;;5066247;28;20504;-78
2021/11/24 08:42:56;;;;;;;23.80;14.88;;;7.40;69.20;;;;;;5032722;28;20065;-78
2021/11/24 08:45:23;;;;;;;24.95;15.48;;;7.10;69.60;;;;;;5065597;28;20045;-78
2021/11/24 08:47:50;;;;;;;24.45;15.32;;;7.00;69.80;;;;;;5032338;28;20048;-78
2021/11/24 08:50:16;;;;;;;24.52;15.95;;;6.80;69.70;;;;;;5033630;28;20033;-78
2021/11/24 08:52:42;;;;;;;26.38;16.10;;;6.60;69.60;;;;;;5032313;28;20043;-77
2021/11/24 08:55:08;;;;;;;28.10;17.00;;;6.30;70.10;;;;;;5033565;28;20400;-77
2021/11/24 08:57:37;;;;;;;35.63;20.75;;;6.10;71.00;;;;;;5065271;28;20033;-77
2021/11/24 09:00:05;;;;;;;30.38;18.17;;;6.00;71.00;;;;;;5034232;28;20033;-77
2021/11/24 09:02:31;;;;;;;27.98;16.15;;;5.90;71.10;;;;;;5034729;28;20021;-77
2021/11/24 09:04:57;;;;;;;26.90;16.08;;;5.80;70.80;;;;;;5033314;28;20026;-77
2021/11/24 09:07:23;;;;;;;28.42;15.90;;;5.80;71.30;;;;;;5033641;28;20040;-77
2021/11/24 09:09:48;;;;;;;30.17;17.20;;;5.70;71.60;;;;;;5065520;28;20026;-77
2021/11/24 09:12:14;;;;;;;30.63;17.88;;;5.80;71.80;;;;;;5032160;28;20030;-77
2021/11/24 09:14:40;;;;;;;26.50;16.85;;;5.80;71.10;;;;;;5033358;28;20112;-77
2021/11/24 09:17:06;;;;;;;28.98;16.95;;;5.60;70.70;;;;;;5035646;28;20026;-77
2021/11/24 09:19:31;;;;;;;28.00;16.50;;;5.50;71.00;;;;;;5069677;28;20037;-77
2021/11/24 09:21:57;;;;;;;30.10;16.90;;;5.30;71.70;;;;;;5069229;28;20037;-77
2021/11/24 09:24:26;;;;;;;30.85;17.30;;;5.10;72.00;;;;;;5069314;28;20021;-77
2021/11/24 09:27:07;;;;;;;28.60;16.27;;;5.00;72.50;;;;;;5069507;28;20045;-78
2021/11/24 09:29:33;;;;;;;;;;;4.80;73.00;;;;;;5037831;28;20115;-77
2021/11/24 09:32:04;;;;;;;25.77;13.63;;;4.60;73.90;;;;;;5037769;28;20365;-77
2021/11/24 09:34:31;;;;;;;22.67;13.73;;;4.70;74.40;;;;;;5040507;28;20104;-77
2021/11/24 09:36:58;;;;;;;26.08;13.85;;;4.60;74.20;;;;;;5042274;28;20030;-77
2021/11/24 09:39:24;;;;;;;27.98;14.85;;;4.60;74.40;;;;;;5040456;28;20052;-78
2021/11/24 09:41:51;;;;;;;27.48;15.45;;;4.60;74.60;;;;;;5059131;28;20085;-76
2021/11/24 09:44:17;;;;;;;31.58;15.82;;;4.60;75.20;;;;;;5091868;28;20013;-76
2021/11/24 09:46:47;;;;;;;25.42;14.10;;;4.40;76.40;;;;;;5060078;28;20045;-76
2021/11/24 09:49:14;;;;;;;26.17;14.75;;;4.50;76.10;;;;;;5059459;28;20036;-78
2021/11/24 09:51:42;;;;;;;24.85;13.63;;;4.40;76.10;;;;;;5081664;28;20052;-77
2021/11/24 09:54:10;;;;;;;24.88;13.75;;;4.40;76.50;;;;;;5080777;28;20021;-78
2021/11/24 09:56:39;;;;;;;26.20;14.85;;;4.30;77.60;;;;;;5079767;28;20029;-76
2021/11/24 09:59:05;;;;;;;27.60;14.63;;;4.30;77.40;;;;;;5074525;28;20060;-77
2021/11/24 10:01:31;;;;;;;28.55;15.13;;;4.20;78.00;;;;;;5037940;28;20460;-77
2021/11/24 10:03:57;;;;;;;26.33;13.82;;;4.20;78.50;;;;;;5069201;28;20471;-78
2021/11/24 10:06:23;;;;;;;22.10;12.30;;;4.20;78.80;;;;;;5068843;28;20045;-78
2021/11/24 10:08:52;;;;;;;23.83;13.18;;;4.20;79.50;;;;;;5036564;28;20061;-77
2021/11/24 10:11:19;;;;;;;25.10;14.00;;;4.30;79.60;;;;;;5035355;28;20057;-77
2021/11/24 10:13:48;;;;;;;27.13;14.25;;;4.30;79.50;;;;;;5068646;28;20033;-78
2021/11/24 10:16:25;;;;;;;27.55;13.77;;;4.30;79.40;;;;;;5068369;28;20084;-78
2021/11/24 10:19:06;;;;;;;25.73;13.60;;;4.30;80.00;;;;;;5068448;28;20406;-77
2021/11/24 10:21:33;;;;;;;;;;;4.30;80.50;;;;;;5068702;28;20033;-77
2021/11/24 10:24:02;;;;;;;28.65;14.73;;;4.20;80.80;;;;;;5036389;28;19955;-77
2021/11/24 10:26:34;;;;;;;28.65;14.60;;;4.20;80.50;;;;;;5068192;28;20021;-77
2021/11/24 10:29:13;;;;;;;30.63;16.08;;;4.20;80.70;;;;;;5067590;28;20033;-77
2021/11/24 10:31:43;;;;;;;30.23;16.05;;;4.20;81.50;;;;;;5036498;28;20053;-78
2021/11/24 10:34:19;;;;;;;28.58;15.60;;;4.20;81.70;;;;;;5068136;28;20025;-78
2021/11/24 10:37:00;;;;;;;31.08;15.93;;;4.20;81.60;;;;;;5034726;28;20378;-78
2021/11/24 10:39:29;;;;;;;29.17;15.38;;;4.10;81.40;;;;;;5036287;28;20033;-78
2021/11/24 10:42:04;;;;;;;30.40;15.60;;;4.10;81.80;;;;;;5036123;28;20025;-78
2021/11/24 10:44:31;;;;;;;26.55;14.30;;;4.00;81.90;;;;;;5068032;28;20026;-78
2021/11/24 10:46:58;;;;;;;29.60;15.70;;;4.00;81.90;;;;;;5071194;28;20029;-76
2021/11/24 10:49:52;;;;;;;27.10;14.07;;;4.00;82.30;;;;;;5035787;28;20047;-77
2021/11/24 10:52:19;;;;;;;30.02;15.50;;;4.00;83.20;;;;;;5035822;28;20091;-77
2021/11/24 10:55:19;;;;;;;25.15;13.35;;;4.00;82.40;;;;;;5034513;28;20514;-77
2021/11/24 10:58:00;;;;;;;25.70;13.60;;;4.00;82.50;;;;;;5035892;28;20040;-77
2021/11/24 11:00:39;;;;;;;27.20;14.90;;;4.10;82.90;;;;;;5035658;28;20030;-77
2021/11/24 11:03:07;;;;;;;25.60;14.90;;;4.10;82.50;;;;;;5035626;28;20037;-77
2021/11/24 11:05:33;;;;;;;28.98;16.30;;;4.20;82.20;;;;;;5067616;28;20036;-78
2021/11/24 11:08:05;;;;;;;27.17;15.55;;;4.30;82.00;;;;;;5035520;28;20091;-77
2021/11/24 11:10:35;;;;;;;24.90;14.48;;;4.30;82.20;;;;;;5034492;28;20026;-77
2021/11/24 11:13:08;;;;;;;21.98;13.50;;;4.40;81.90;;;;;;5035301;28;20083;-77
2021/11/24 11:15:38;;;;;;;23.05;13.60;;;4.40;81.90;;;;;;5067445;28;20035;-77
2021/11/24 11:18:24;;;;;;;25.60;14.20;;;4.50;81.60;;;;;;5067148;28;20391;-77
2021/11/24 11:21:07;;;;;;;25.20;13.57;;;4.50;81.60;;;;;;5035330;28;20024;-77
2021/11/24 11:23:40;;;;;;;20.23;12.75;;;4.40;81.90;;;;;;5067580;28;20375;-79
2021/11/24 11:26:27;;;;;;;20.45;11.98;;;4.40;81.60;;;;;;5033890;28;20476;-77
2021/11/24 11:28:55;;;;;;;23.55;13.23;;;4.40;81.90;;;;;;5028091;28;20528;-77
2021/11/24 11:31:23;;;;;;;34.28;16.85;;;4.30;82.00;;;;;;5034964;28;20021;-77
2021/11/24 11:33:52;;;;;;;37.30;18.13;;;4.30;82.40;;;;;;5033451;28;20032;-77
2021/11/24 11:36:18;;;;;;;33.13;16.58;;;4.20;83.00;;;;;;5066719;28;20025;-76
2021/11/24 11:38:49;;;;;;;30.77;16.55;;;4.10;83.30;;;;;;5066237;28;20069;-77
2021/11/24 11:41:16;;;;;;;;;;;4.10;83.50;;;;;;5066732;28;20022;-76
2021/11/24 11:43:44;;;;;;;21.45;12.75;;;4.00;83.80;;;;;;5034681;28;20359;-77
2021/11/24 11:46:19;;;;;;;21.00;12.15;;;4.00;84.00;;;;;;5034526;28;20050;-78
2021/11/24 11:48:45;;;;;;;21.38;11.57;;;4.00;84.90;;;;;;5067247;28;20091;-78
2021/11/24 11:51:13;;;;;;;18.75;10.38;;;4.00;84.20;;;;;;5066720;28;20424;-77
2021/11/24 11:53:43;;;;;;;20.95;12.50;;;4.00;84.70;;;;;;5066242;28;20087;-77
2021/11/24 11:56:12;;;;;;;20.55;11.45;;;4.00;85.00;;;;;;5033163;28;20032;-77
2021/11/24 11:58:55;;;;;;;18.05;11.05;;;4.00;85.00;;;;;;5034587;28;20072;-79
2021/11/24 12:01:47;;;;;;;18.77;10.90;;;4.00;85.30;;;;;;5033043;28;20064;-78
2021/11/24 12:04:20;;;;;;;16.25;9.73;;;4.00;85.30;;;;;;5029121;28;20033;-78
2021/11/24 12:06:52;;;;;;;16.48;9.88;;;3.90;85.50;;;;;;5034538;28;20087;-78
2021/11/24 12:09:40;;;;;;;17.20;10.35;;;3.90;85.70;;;;;;5034467;28;20418;-78
2021/11/24 12:12:10;;;;;;;14.98;9.48;;;3.90;85.50;;;;;;5034290;28;20087;-78
2021/11/24 12:14:54;;;;;;;12.77;8.77;;;3.90;85.50;;;;;;5034526;28;20028;-77
2021/11/24 12:20:13;;;;;;;13.48;8.30;;;4.00;85.60;;;;;;5037303;28;20391;-77
2021/11/24 12:22:48;;;;;;;14.82;8.95;;;3.90;86.30;;;;;;5034217;28;20056;-77
2021/11/24 12:28:06;;;;;;;11.68;7.40;;;4.00;86.20;;;;;;5033887;28;20082;-77
2021/11/24 12:33:19;;;;;;;12.73;8.55;;;4.10;86.20;;;;;;5033559;28;20029;-77
2021/11/24 12:35:57;;;;;;;13.95;7.78;;;4.10;85.90;;;;;;5032607;28;20049;-77
2021/11/24 12:38:33;;;;;;;12.88;8.18;;;4.10;85.80;;;;;;5032412;28;20037;-77
2021/11/24 12:41:06;;;;;;;12.40;8.13;;;4.10;86.30;;;;;;5032298;28;20073;-76
2021/11/24 12:43:35;;;;;;;15.43;9.13;;;4.10;86.20;;;;;;5032506;28;20026;-76
2021/11/24 12:46:16;;;;;;;16.05;9.52;;;4.10;86.30;;;;;;5031990;28;20153;-76
2021/11/24 12:48:50;;;;;;;15.25;9.00;;;4.10;86.20;;;;;;5032783;28;20034;-77
2021/11/24 12:51:19;;;;;;;12.60;7.90;;;4.10;86.90;;;;;;5033777;28;20144;-77
2021/11/24 12:53:54;;;;;;;14.00;8.15;;;4.20;87.80;;;;;;5032286;28;20116;-77
2021/11/24 12:56:22;;;;;;;12.95;8.30;;;4.30;87.30;;;;;;5033578;28;20353;-76
2021/11/24 12:58:48;;;;;;;12.05;7.60;;;4.40;86.10;;;;;;5033634;28;20471;-77